메인 페이지
METAR-TAF:

METAR-TAF

공항 :

Quincy Regional Airport (Baldwin Field)

Quincy, 일리노이, 미국

위도: 39-56-33N, 경도: 091-11-40W, 고도: 234m

현재 날씨관측

예보는 53분 전, 11:54시(UTC)에 발표되었습니다.
남남서6kt
온도 17°C
습도 77%
기압 1009 hPa
시정: 16.1km
고도 2200ft 상공 구름 많음
고도 2800ft 상공 흐림

METAR: KUIN 071154Z AUTO 21006KT 10SM BKN022 OVC028 17/13 A2981 RMK AO2 SLP092 70001 T01670133 10183 20156 56003

시각: 07:47 (12:47 UTC)

예보

예보는 1 시간 15분 전, 11:32시(UTC)에 발표되었습니다.
예보 대상 시간: 07일 12시부터 08일 12시까지 (UTC)
남남서9kt
시정: 10km
고도 3000ft 상공 흐림
07일 1400시부터 (UTC)
남서10kt
시정: 10km
고도 1500ft 상공 구름 많음
07일 1700시부터 (UTC)
남서12kt
시정: 10km
고도 2000ft 상공 구름 보통
08일 0200시부터 (UTC)
7kt
시정: 10km
고도 20000ft 상공 구름 보통

TAF: KUIN 071132Z 0712/0812 21009KT P6SM OVC030 FM071400 22010KT P6SM BKN015 FM071700 23012KT P6SM SCT020 FM080200 26007KT P6SM SCT200

4,000개 이상의 공항 관측 자료 및 예보 (METAR 및 TAF 보고).

지도상에서 검색 가능한 기상관측소가 노란 점과 빨간 점으로 표시되어 있습니다.

기상관측소 명을 보려면 표시 위로 마우스를 이동하세요.

날씨 관측과 예보를 보려면 클릭하세요.

지도 변경 : 확대하려면 엑스 표시가 있는 녹색 버튼, 축소하려면 빼기 표시가 있는 녹색 버튼, 다음 페이지의 지도를 보려면 녹색 화살표를 클릭하세요.


METAR-TAF: